Nenana Municipal Airport Nenana US
ICAO: PANN
IATA:
Category: Medium
Scheduled Services:

Elevation: 362 ft
TransAlt. 18000 ft.

Airport Communications:
FAIRBANKS APP/DEP:125.35
ASOS:125.2
CTAF:122.1
FAIRBANKS RDO:122.5
TWEB:115.8

PANN Zoom In..

If you have problems with the map follow the link
https://www.worldairports.se/pages/airport.php?
ICAO=PANN

Runways:

(A) RW 04L length 4600 ft width 100 ft
---- / hdg 38

(B) RW 04R length 2520 ft width 60 ft
---- / hdg 38

(C) RW 22L length 2520 ft width 60 ft
---- / hdg 218

(D) RW 22R length 4600 ft width 100 ft
---- / hdg 218

Location; PANN
Day. 20 / Time. 20.53 Zulu
* Altimeter: 30.04
* Temperature: -09° c. -15.8°f.
* Wind from: 070° Speed 17 kn with Gusts up to 27 kn.
Dewpoint: -13° c.
Visibility: 10 Statute Miles.
Clouds: Clear (automated report).

PANN 202053Z AUTO 07017G27KT 10SM CLR M09/M13 A3004 RMK AO2 PK WND 07027/2050 SLP188 T10891133 56029 TSNO


Wind From 070°
Speed 17 kn.

 
 
jpsmedia.com for Web Design worldairports.se 2019   terms of use